createdAt,value
2024-03-02T00:00:14.173Z,34.58
2024-03-02T00:02:48.048Z,34.22
2024-03-02T00:05:16.421Z,33.08
2024-03-02T00:07:43.856Z,33.65
2024-03-02T00:10:12.579Z,34.70
2024-03-02T00:12:40.351Z,32.20
2024-03-02T00:15:31.086Z,31.08
2024-03-02T00:17:59.953Z,32.20
2024-03-02T00:20:29.535Z,31.80
2024-03-02T00:23:06.913Z,30.85
2024-03-02T00:25:42.411Z,29.52
2024-03-02T00:28:17.001Z,29.92
2024-03-02T00:30:46.207Z,29.70
2024-03-02T00:33:12.827Z,29.50
2024-03-02T00:35:39.282Z,30.33
2024-03-02T00:38:07.227Z,28.20
2024-03-02T00:40:33.897Z,29.42
2024-03-02T00:43:00.496Z,27.02
2024-03-02T00:45:27.209Z,27.85
2024-03-02T00:47:54.321Z,28.70
2024-03-02T00:50:26.953Z,27.70
2024-03-02T00:52:57.375Z,27.17
2024-03-02T00:55:24.033Z,27.20
2024-03-02T00:57:50.490Z,27.00
2024-03-02T01:00:18.828Z,25.73
2024-03-02T01:02:47.449Z,25.65
2024-03-02T01:05:13.928Z,25.00
2024-03-02T01:07:40.393Z,24.73
2024-03-02T01:10:07.169Z,24.13
2024-03-02T01:12:33.751Z,24.45
2024-03-02T01:15:00.202Z,23.40
2024-03-02T01:17:26.604Z,22.95
2024-03-02T01:19:53.030Z,22.35
2024-03-02T01:22:25.967Z,21.98
2024-03-02T01:24:52.788Z,23.10
2024-03-02T01:27:19.896Z,21.85
2024-03-02T01:29:46.348Z,22.10
2024-03-02T01:32:12.802Z,21.90
2024-03-02T01:34:39.205Z,21.00
2024-03-02T01:37:05.684Z,21.85
2024-03-02T01:39:32.142Z,19.77
2024-03-02T01:41:58.555Z,20.65
2024-03-02T01:44:24.971Z,20.75
2024-03-02T01:46:51.921Z,19.05
2024-03-02T01:49:18.273Z,20.50
2024-03-02T01:51:44.711Z,18.52
2024-03-02T01:54:11.129Z,19.90
2024-03-02T01:56:37.530Z,19.80
2024-03-02T01:59:04.436Z,19.95
2024-03-02T02:01:32.153Z,19.13
2024-03-02T02:03:58.796Z,18.00
2024-03-02T02:06:25.650Z,18.00
2024-03-02T02:08:52.095Z,17.80
2024-03-02T02:11:18.877Z,18.27
2024-03-02T02:13:45.470Z,17.95
2024-03-02T02:16:12.096Z,18.48
2024-03-02T02:18:38.845Z,17.15
2024-03-02T02:21:05.317Z,16.40
2024-03-02T02:23:31.711Z,17.38
2024-03-02T02:25:58.140Z,17.20
2024-03-02T02:28:24.639Z,16.90
2024-03-02T02:30:51.131Z,16.98
2024-03-02T02:33:17.654Z,15.73
2024-03-02T02:35:44.107Z,16.10
2024-03-02T02:38:10.613Z,15.57
2024-03-02T02:40:37.001Z,15.27
2024-03-02T02:43:03.790Z,15.68
2024-03-02T02:45:30.265Z,16.20
2024-03-02T02:47:56.794Z,14.55
2024-03-02T02:50:23.276Z,14.82
2024-03-02T02:52:49.769Z,15.27
2024-03-02T02:55:17.181Z,13.90
2024-03-02T02:57:45.076Z,13.35
2024-03-02T03:00:16.881Z,12.98
2024-03-02T03:02:46.456Z,13.70
2024-03-02T03:05:15.476Z,12.93
2024-03-02T03:07:42.891Z,13.30
2024-03-02T03:10:09.804Z,11.98
2024-03-02T03:12:36.774Z,13.35
2024-03-02T03:15:05.532Z,12.45
2024-03-02T03:17:32.147Z,12.15
2024-03-02T03:19:58.506Z,11.75
2024-03-02T03:22:24.996Z,11.00
2024-03-02T03:24:51.604Z,12.57
2024-03-02T03:27:18.121Z,12.18
2024-03-02T03:29:44.605Z,12.63
2024-03-02T03:32:11.067Z,11.13
2024-03-02T03:34:37.600Z,10.65
2024-03-02T03:37:04.292Z,10.88
2024-03-02T03:39:30.733Z,11.40
2024-03-02T03:41:57.222Z,11.82
2024-03-02T03:44:23.816Z,11.63
2024-03-02T03:46:50.286Z,11.68
2024-03-02T03:49:16.715Z,10.80
2024-03-02T03:51:43.759Z,10.50
2024-03-02T03:54:12.281Z,10.68
2024-03-02T03:56:38.876Z,10.52
2024-03-02T03:59:05.803Z,9.82
2024-03-02T04:01:35.411Z,10.10
2024-03-02T04:04:04.554Z,10.45
2024-03-02T04:06:31.159Z,10.30
2024-03-02T04:08:57.673Z,10.20
2024-03-02T04:11:24.832Z,9.13
2024-03-02T04:13:51.240Z,9.73
2024-03-02T04:16:17.673Z,9.63
2024-03-02T04:18:44.150Z,9.60
2024-03-02T04:21:10.600Z,8.50
2024-03-02T04:23:36.981Z,8.98
2024-03-02T04:26:03.366Z,9.30
2024-03-02T04:28:29.749Z,8.77
2024-03-02T04:30:56.324Z,9.27
2024-03-02T04:33:22.862Z,8.55
2024-03-02T04:35:49.367Z,9.13
2024-03-02T04:38:15.828Z,8.95
2024-03-02T04:40:42.382Z,8.20
2024-03-02T04:43:10.536Z,8.73
2024-03-02T04:45:39.343Z,7.45
2024-03-02T04:48:06.219Z,7.43
2024-03-02T04:50:32.623Z,7.47
2024-03-02T04:52:58.985Z,7.72
2024-03-02T04:55:40.275Z,8.35
2024-03-02T04:58:07.546Z,7.53
2024-03-02T05:00:34.617Z,7.22
2024-03-02T05:03:01.186Z,7.22
2024-03-02T05:05:27.746Z,7.20
2024-03-02T05:07:54.208Z,6.47
2024-03-02T05:10:20.764Z,6.38
2024-03-02T05:12:47.200Z,7.45
2024-03-02T05:15:15.362Z,6.75
2024-03-02T05:17:46.380Z,7.90
2024-03-02T05:20:13.164Z,7.00
2024-03-02T05:22:40.766Z,6.85
2024-03-02T05:25:08.256Z,6.78
2024-03-02T05:27:34.871Z,7.15
2024-03-02T05:30:01.913Z,6.75
2024-03-02T05:32:28.340Z,6.18
2024-03-02T05:34:56.077Z,6.78
2024-03-02T05:37:22.649Z,6.68
2024-03-02T05:39:49.140Z,7.53
2024-03-02T05:42:17.784Z,6.57
2024-03-02T05:44:44.305Z,6.10
2024-03-02T05:47:10.777Z,6.57
2024-03-02T05:49:37.272Z,6.22
2024-03-02T05:52:04.271Z,6.32
2024-03-02T05:54:30.824Z,6.93
2024-03-02T05:56:57.259Z,6.20
2024-03-02T05:59:23.635Z,6.18
2024-03-02T06:01:53.156Z,5.82
2024-03-02T06:04:19.883Z,6.45
2024-03-02T06:06:46.438Z,5.78
2024-03-02T06:09:13.769Z,6.05
2024-03-02T06:11:41.894Z,5.45
2024-03-02T06:14:09.895Z,5.20
2024-03-02T06:16:36.490Z,5.63
2024-03-02T06:19:03.273Z,5.60
2024-03-02T06:21:30.872Z,5.82
2024-03-02T06:23:57.847Z,4.45
2024-03-02T06:26:26.104Z,4.80
2024-03-02T06:28:53.180Z,4.35
2024-03-02T06:31:19.802Z,5.43
2024-03-02T06:33:46.312Z,5.05
2024-03-02T06:36:13.139Z,4.63
2024-03-02T06:38:43.530Z,4.45
2024-03-02T06:41:10.352Z,4.32
2024-03-02T06:43:36.887Z,5.15
2024-03-02T06:46:03.696Z,4.53
2024-03-02T06:50:58.483Z,4.85
2024-03-02T06:53:24.908Z,4.40
2024-03-02T06:55:51.454Z,4.20
2024-03-02T06:58:17.902Z,4.55
2024-03-02T07:00:45.164Z,4.30
2024-03-02T07:03:11.677Z,4.10
2024-03-02T07:05:38.114Z,3.92
2024-03-02T07:08:06.272Z,3.40
2024-03-02T07:10:32.772Z,3.90
2024-03-02T07:12:59.223Z,3.88
2024-03-02T07:15:28.438Z,3.85
2024-03-02T07:17:54.941Z,3.53
2024-03-02T07:20:21.671Z,4.38
2024-03-02T07:22:48.193Z,3.30
2024-03-02T07:27:45.023Z,4.05
2024-03-02T07:30:15.151Z,3.75
2024-03-02T07:32:42.881Z,4.00
2024-03-02T07:35:09.507Z,3.92
2024-03-02T07:37:35.990Z,3.38
2024-03-02T07:40:02.620Z,3.08
2024-03-02T07:42:29.127Z,3.78
2024-03-02T07:44:55.619Z,3.45
2024-03-02T07:47:22.057Z,3.83
2024-03-02T07:49:48.484Z,3.15
2024-03-02T07:52:14.927Z,3.08
2024-03-02T07:54:41.417Z,3.65
2024-03-02T07:57:07.904Z,2.97
2024-03-02T07:59:34.405Z,3.53
2024-03-02T08:02:01.792Z,2.92
2024-03-02T08:04:28.320Z,2.92
2024-03-02T08:06:55.959Z,3.13
2024-03-02T08:09:22.554Z,3.42
2024-03-02T08:11:49.107Z,2.97
2024-03-02T08:14:15.594Z,2.72
2024-03-02T08:16:42.523Z,2.97
2024-03-02T08:19:10.135Z,3.53
2024-03-02T08:21:36.915Z,2.75
2024-03-02T08:24:03.974Z,2.42
2024-03-02T08:26:32.580Z,2.67
2024-03-02T08:29:00.163Z,2.92
2024-03-02T08:31:26.635Z,2.83
2024-03-02T08:33:53.212Z,2.28
2024-03-02T08:36:20.775Z,2.08
2024-03-02T08:38:47.318Z,2.35
2024-03-02T08:41:14.822Z,2.33
2024-03-02T08:43:43.253Z,2.15
2024-03-02T08:46:09.852Z,2.33
2024-03-02T08:48:36.337Z,2.53
2024-03-02T08:51:05.649Z,2.03
2024-03-02T08:53:32.094Z,2.00
2024-03-02T08:55:59.709Z,2.03
2024-03-02T08:58:27.461Z,1.88
2024-03-02T09:00:54.197Z,1.90
2024-03-02T09:03:20.851Z,1.98
2024-03-02T09:05:47.233Z,2.25
2024-03-02T09:08:13.658Z,2.03
2024-03-02T09:10:41.030Z,1.70
2024-03-02T09:13:07.671Z,1.50
2024-03-02T09:15:37.027Z,1.50
2024-03-02T09:18:04.295Z,1.35
2024-03-02T09:20:30.730Z,1.33
2024-03-02T09:22:57.692Z,1.33
2024-03-02T09:25:24.161Z,1.20
2024-03-02T09:27:50.583Z,1.48
2024-03-02T09:30:17.002Z,1.20
2024-03-02T09:32:44.404Z,0.80
2024-03-02T09:35:11.434Z,1.00
2024-03-02T09:37:37.815Z,0.40
2024-03-02T09:40:04.913Z,0.65
2024-03-02T09:42:31.704Z,0.40
2024-03-02T09:44:58.404Z,0.60
2024-03-02T09:47:25.043Z,0.70
2024-03-02T09:49:51.839Z,0.90
2024-03-02T09:52:18.448Z,0.50
2024-03-02T09:54:44.901Z,0.52
2024-03-02T09:57:11.427Z,0.50
2024-03-02T09:59:37.782Z,0.30
2024-03-02T10:02:08.101Z,0.50
2024-03-02T10:04:36.778Z,0.65
2024-03-02T10:07:19.196Z,0.50
2024-03-02T10:09:47.483Z,0.55
2024-03-02T10:12:15.897Z,0.43
2024-03-02T10:14:42.661Z,0.40
2024-03-02T10:17:11.099Z,0.82
2024-03-02T10:19:38.826Z,0.35
2024-03-02T10:22:07.156Z,0.22
2024-03-02T10:24:37.949Z,0.40
2024-03-02T10:27:17.766Z,0.32
2024-03-02T10:29:47.461Z,0.50
2024-03-02T10:32:14.247Z,0.20
2024-03-02T10:34:41.616Z,0.30
2024-03-02T10:37:08.679Z,0.28
2024-03-02T10:39:40.860Z,0.30
2024-03-02T10:42:08.223Z,0.40
2024-03-02T10:44:36.014Z,0.38
2024-03-02T10:47:05.047Z,0.40
2024-03-02T10:49:32.918Z,0.47
2024-03-02T10:52:00.047Z,0.40
2024-03-02T10:54:36.900Z,0.40
2024-03-02T10:57:06.404Z,0.30
2024-03-02T10:59:37.836Z,0.85
2024-03-02T11:02:06.381Z,0.30
2024-03-02T11:04:34.188Z,0.40
2024-03-02T11:07:06.290Z,0.20
2024-03-02T11:09:36.228Z,0.20
2024-03-02T11:12:24.038Z,0.43
2024-03-02T11:14:53.123Z,0.93
2024-03-02T11:17:20.250Z,1.92
2024-03-02T11:19:48.464Z,2.20
2024-03-02T11:22:16.624Z,1.45
2024-03-02T11:24:53.937Z,1.38
2024-03-02T11:27:49.931Z,0.90
2024-03-02T11:30:35.647Z,1.08
2024-03-02T11:33:12.123Z,0.82
2024-03-02T11:35:52.431Z,0.75
2024-03-02T11:38:20.068Z,1.52
2024-03-02T11:40:46.506Z,0.90
2024-03-02T11:43:13.322Z,1.20
2024-03-02T11:45:45.264Z,0.70
2024-03-02T11:48:15.325Z,1.00
2024-03-02T11:50:50.600Z,0.60
2024-03-02T11:53:18.117Z,0.73
2024-03-02T11:55:47.596Z,1.10
2024-03-02T11:58:14.622Z,0.88
2024-03-02T12:00:41.193Z,0.90
2024-03-02T12:03:09.687Z,0.68
2024-03-02T12:05:37.170Z,0.70
2024-03-02T12:08:06.077Z,0.32
2024-03-02T12:10:33.567Z,0.40
2024-03-02T12:13:08.482Z,0.32
2024-03-02T12:15:38.069Z,0.55
2024-03-02T12:18:05.540Z,0.40
2024-03-02T12:20:33.304Z,0.28
2024-03-02T12:23:01.785Z,0.20
2024-03-02T12:25:28.719Z,0.40
2024-03-02T12:27:56.968Z,0.35
2024-03-02T12:30:24.437Z,0.50
2024-03-02T12:32:51.382Z,0.28
2024-03-02T12:35:19.721Z,0.28
2024-03-02T12:37:50.689Z,0.55
2024-03-02T12:40:19.454Z,0.20
2024-03-02T12:42:46.869Z,0.20
2024-03-02T12:45:14.504Z,0.20
2024-03-02T12:47:45.532Z,0.43
2024-03-02T12:50:12.078Z,0.10
2024-03-02T12:52:38.684Z,0.20
2024-03-02T12:55:06.687Z,0.38
2024-03-02T12:57:35.278Z,0.30
2024-03-02T13:00:15.490Z,0.30
2024-03-02T13:02:43.147Z,0.10
2024-03-02T13:05:12.851Z,0.20
2024-03-02T13:07:39.752Z,0.30
2024-03-02T13:10:08.847Z,0.20
2024-03-02T13:12:36.855Z,0.25
2024-03-02T13:15:04.876Z,0.22
2024-03-02T13:17:36.958Z,0.30
2024-03-02T13:20:11.914Z,0.20
2024-03-02T13:22:38.630Z,0.20
2024-03-02T13:25:05.973Z,0.15
2024-03-02T13:27:33.433Z,0.22
2024-03-02T13:30:00.136Z,0.22
2024-03-02T13:32:27.114Z,0.22
2024-03-02T13:34:53.618Z,0.10
2024-03-02T13:37:23.176Z,0.30
2024-03-02T13:39:50.091Z,0.10
2024-03-02T13:42:17.497Z,0.30
2024-03-02T13:44:49.219Z,0.10
2024-03-02T13:47:15.872Z,0.22
2024-03-02T13:49:46.796Z,0.40
2024-03-02T13:52:17.621Z,0.20
2024-03-02T13:54:46.073Z,0.20
2024-03-02T13:57:13.263Z,0.28
2024-03-02T13:59:40.135Z,0.20
2024-03-02T14:02:07.398Z,0.30
2024-03-02T14:04:34.988Z,0.10
2024-03-02T14:07:02.855Z,0.15
2024-03-02T14:09:29.823Z,0.30
2024-03-02T14:11:57.030Z,0.22
2024-03-02T14:14:24.163Z,0.10
2024-03-02T14:16:50.878Z,0.15
2024-03-02T14:19:17.498Z,0.20
2024-03-02T14:21:44.102Z,0.28
2024-03-02T14:24:10.755Z,0.10
2024-03-02T14:26:37.862Z,0.30
2024-03-02T14:29:04.912Z,0.10
2024-03-02T14:31:35.095Z,0.10
2024-03-02T14:34:01.736Z,0.20
2024-03-02T14:36:29.449Z,0.17
2024-03-02T14:38:56.521Z,0.15
2024-03-02T14:41:25.010Z,0.20
2024-03-02T14:43:51.815Z,0.20
2024-03-02T14:46:18.769Z,0.20
2024-03-02T14:48:47.101Z,0.10
2024-03-02T14:51:14.582Z,0.20
2024-03-02T14:53:41.370Z,0.20
2024-03-02T14:56:08.105Z,0.20
2024-03-02T14:58:36.218Z,0.20
2024-03-02T15:01:03.064Z,0.25
2024-03-02T15:03:30.190Z,0.20
2024-03-02T15:05:57.843Z,0.15
2024-03-02T15:08:24.394Z,0.30
2024-03-02T15:10:50.960Z,0.20
2024-03-02T15:13:17.630Z,0.10
2024-03-02T15:15:44.203Z,0.40
2024-03-02T15:18:10.713Z,0.22
2024-03-02T15:20:37.271Z,0.17
2024-03-02T15:23:04.307Z,0.13
2024-03-02T15:25:30.807Z,0.10
2024-03-02T15:27:57.468Z,0.20
2024-03-02T15:30:24.078Z,0.20
2024-03-02T15:32:50.636Z,0.15
2024-03-02T15:35:17.032Z,0.17
2024-03-02T15:37:43.449Z,0.10
2024-03-02T15:40:10.575Z,0.13
2024-03-02T15:42:37.293Z,0.10
2024-03-02T15:45:04.121Z,0.20
2024-03-02T15:47:30.602Z,0.15
2024-03-02T15:49:57.130Z,0.22
2024-03-02T15:52:23.778Z,0.10
2024-03-02T15:54:53.082Z,0.30
2024-03-02T15:57:20.713Z,0.10
2024-03-02T15:59:47.186Z,0.20
2024-03-02T16:02:15.383Z,0.10
2024-03-02T16:04:41.804Z,0.20
2024-03-02T16:07:10.766Z,0.20
2024-03-02T16:09:37.300Z,0.10
2024-03-02T16:12:04.220Z,0.10
2024-03-02T16:14:30.785Z,0.20
2024-03-02T16:16:57.173Z,0.20
2024-03-02T16:19:29.893Z,0.20
2024-03-02T16:21:59.744Z,0.20
2024-03-02T16:24:26.380Z,0.10
2024-03-02T16:26:52.915Z,0.22
2024-03-02T16:29:19.375Z,0.38
2024-03-02T16:31:45.853Z,0.20
2024-03-02T16:34:12.883Z,0.20
2024-03-02T16:36:41.360Z,0.40
2024-03-02T16:39:09.596Z,0.22
2024-03-02T16:41:36.145Z,0.45
2024-03-02T16:44:07.055Z,0.20
2024-03-02T16:46:34.104Z,0.10
2024-03-02T16:49:00.653Z,0.10
2024-03-02T16:51:27.301Z,0.28
2024-03-02T16:53:53.740Z,0.20
2024-03-02T16:56:20.183Z,0.20
2024-03-02T16:58:46.644Z,0.30
2024-03-02T17:01:13.107Z,0.20
2024-03-02T17:03:41.644Z,0.10
2024-03-02T17:06:08.084Z,0.10
2024-03-02T17:08:35.503Z,0.20
2024-03-02T17:11:01.935Z,0.20
2024-03-02T17:13:28.400Z,0.30
2024-03-02T17:15:54.878Z,0.10
2024-03-02T17:18:21.349Z,0.20
2024-03-02T17:20:47.775Z,0.28
2024-03-02T17:23:14.169Z,0.20
2024-03-02T17:25:40.735Z,0.10
2024-03-02T17:28:21.150Z,0.13
2024-03-02T17:30:47.617Z,0.10
2024-03-02T17:33:14.290Z,0.25
2024-03-02T17:35:40.752Z,0.25
2024-03-02T17:38:07.402Z,0.35
2024-03-02T17:40:33.808Z,2.65
2024-03-02T17:43:00.217Z,3.67
2024-03-02T17:45:26.649Z,4.38
2024-03-02T17:47:53.030Z,3.97
2024-03-02T17:50:19.507Z,3.45
2024-03-02T17:52:45.942Z,3.50
2024-03-02T17:55:12.408Z,3.45
2024-03-02T17:57:38.866Z,3.17
2024-03-02T18:00:06.295Z,3.15
2024-03-02T18:02:34.524Z,3.05
2024-03-02T18:05:00.935Z,2.50
2024-03-02T18:07:27.368Z,2.55
2024-03-02T18:09:53.876Z,3.20
2024-03-02T18:12:20.534Z,2.13
2024-03-02T18:14:46.943Z,2.25
2024-03-02T18:17:13.598Z,3.15
2024-03-02T18:19:40.187Z,2.33
2024-03-02T18:22:06.828Z,2.00
2024-03-02T18:24:36.509Z,2.25
2024-03-02T18:27:04.509Z,1.90
2024-03-02T18:29:30.887Z,1.65
2024-03-02T18:31:58.789Z,1.67
2024-03-02T18:34:25.288Z,1.77
2024-03-02T18:36:52.056Z,1.85
2024-03-02T18:39:19.049Z,1.38
2024-03-02T18:41:45.686Z,2.13
2024-03-02T18:44:12.155Z,1.60
2024-03-02T18:46:38.637Z,1.77
2024-03-02T18:49:05.202Z,1.50
2024-03-02T18:51:31.598Z,1.17
2024-03-02T18:53:58.048Z,1.10
2024-03-02T18:56:24.549Z,1.00
2024-03-02T18:58:51.037Z,1.65
2024-03-02T19:01:17.640Z,1.50
2024-03-02T19:03:44.228Z,1.63
2024-03-02T19:06:17.116Z,1.08
2024-03-02T19:08:43.722Z,1.25
2024-03-02T19:11:16.986Z,1.08
2024-03-02T19:13:44.453Z,1.05
2024-03-02T19:16:12.894Z,1.00
2024-03-02T19:18:40.943Z,1.17
2024-03-02T19:21:07.659Z,1.05
2024-03-02T19:23:40.260Z,1.00
2024-03-02T19:26:12.525Z,1.45
2024-03-02T19:28:38.932Z,1.45
2024-03-02T19:31:05.351Z,1.10
2024-03-02T19:33:32.060Z,1.27
2024-03-02T19:35:58.458Z,0.80
2024-03-02T19:38:26.266Z,1.17
2024-03-02T19:40:52.889Z,1.20
2024-03-02T19:43:19.537Z,0.90
2024-03-02T19:45:46.090Z,0.90
2024-03-02T19:48:12.747Z,0.90
2024-03-02T19:50:40.935Z,1.25
2024-03-02T19:53:07.339Z,1.00
2024-03-02T19:55:33.921Z,1.38
2024-03-02T19:58:00.351Z,1.15
2024-03-02T20:00:26.859Z,0.80
2024-03-02T20:02:53.403Z,0.73
2024-03-02T20:05:19.876Z,0.98
2024-03-02T20:07:46.705Z,0.50
2024-03-02T20:10:14.126Z,0.95
2024-03-02T20:12:40.846Z,0.70
2024-03-02T20:15:07.918Z,1.00
2024-03-02T20:17:34.413Z,0.85
2024-03-02T20:20:00.823Z,0.90
2024-03-02T20:22:27.245Z,0.82
2024-03-02T20:24:53.766Z,0.57
2024-03-02T20:27:21.299Z,1.10
2024-03-02T20:29:48.612Z,0.80
2024-03-02T20:32:15.095Z,0.93
2024-03-02T20:34:41.493Z,0.60
2024-03-02T20:37:07.994Z,0.80
2024-03-02T20:39:34.505Z,0.90
2024-03-02T20:42:01.040Z,0.93
2024-03-02T20:44:27.479Z,0.50
2024-03-02T20:46:54.777Z,0.60
2024-03-02T20:49:21.282Z,1.33
2024-03-02T20:51:47.927Z,0.52
2024-03-02T20:54:14.374Z,0.98
2024-03-02T20:56:43.490Z,0.70
2024-03-02T20:59:10.011Z,1.30
2024-03-02T21:01:36.899Z,0.73
2024-03-02T21:04:03.947Z,0.77
2024-03-02T21:06:30.620Z,0.70
2024-03-02T21:08:57.074Z,0.73
2024-03-02T21:11:23.564Z,0.82
2024-03-02T21:13:50.490Z,0.95
2024-03-02T21:16:17.826Z,0.77
2024-03-02T21:18:44.430Z,0.50
2024-03-02T21:21:13.925Z,0.55
2024-03-02T21:23:40.655Z,0.73
2024-03-02T21:26:07.172Z,0.70
2024-03-02T21:28:33.626Z,0.63
2024-03-02T21:31:00.078Z,0.45
2024-03-02T21:33:29.726Z,0.50
2024-03-02T21:35:56.210Z,0.60
2024-03-02T21:38:22.840Z,0.60
2024-03-02T21:40:50.044Z,0.50
2024-03-02T21:43:17.167Z,0.75
2024-03-02T21:45:43.812Z,0.45
2024-03-02T21:48:10.296Z,0.40
2024-03-02T21:50:36.840Z,0.43
2024-03-02T21:53:04.698Z,0.52
2024-03-02T21:55:31.136Z,0.52
2024-03-02T21:57:57.632Z,0.38
2024-03-02T22:00:25.130Z,0.70
2024-03-02T22:02:51.533Z,0.77
2024-03-02T22:05:18.102Z,0.50
2024-03-02T22:07:44.529Z,0.38
2024-03-02T22:10:11.045Z,0.65
2024-03-02T22:12:38.788Z,0.50
2024-03-02T22:15:05.589Z,0.40
2024-03-02T22:17:32.350Z,1.10
2024-03-02T22:19:58.868Z,0.68
2024-03-02T22:22:25.327Z,0.40
2024-03-02T22:24:51.853Z,0.60
2024-03-02T22:27:18.314Z,0.40
2024-03-02T22:29:45.036Z,0.30
2024-03-02T22:32:11.449Z,0.38
2024-03-02T22:34:37.909Z,0.45
2024-03-02T22:37:04.670Z,0.40
2024-03-02T22:39:31.149Z,0.50
2024-03-02T22:41:57.631Z,0.45
2024-03-02T22:44:24.073Z,0.38
2024-03-02T22:46:50.502Z,0.63
2024-03-02T22:49:17.517Z,0.43
2024-03-02T22:51:43.984Z,0.60
2024-03-02T22:54:10.468Z,0.60
2024-03-02T22:56:36.888Z,0.60
2024-03-02T22:59:03.550Z,0.43
2024-03-02T23:01:30.097Z,0.40
2024-03-02T23:03:56.610Z,0.50
2024-03-02T23:06:24.070Z,0.52
2024-03-02T23:08:50.532Z,0.30
2024-03-02T23:11:17.046Z,0.43
2024-03-02T23:13:43.526Z,0.77
2024-03-02T23:16:09.977Z,0.38
2024-03-02T23:18:36.522Z,0.40
2024-03-02T23:21:03.075Z,0.30
2024-03-02T23:23:29.481Z,0.40
2024-03-02T23:25:55.934Z,0.30
2024-03-02T23:28:22.468Z,0.30
2024-03-02T23:30:49.003Z,0.65
2024-03-02T23:33:15.690Z,0.50
2024-03-02T23:35:42.813Z,0.30
2024-03-02T23:38:09.462Z,0.30
2024-03-02T23:40:54.259Z,0.30
2024-03-02T23:43:20.799Z,0.38
2024-03-02T23:45:47.287Z,0.40
2024-03-02T23:48:13.824Z,0.32
2024-03-02T23:50:40.267Z,0.22
2024-03-02T23:53:06.710Z,0.57
2024-03-02T23:55:46.322Z,0.30
2024-03-02T23:58:18.329Z,0.30
